createdAt,value
2019-04-10T00:24:03.927Z,10.08
2019-04-10T00:26:37.502Z,10.65
2019-04-10T00:29:12.005Z,8.45
2019-04-10T00:31:46.598Z,9.18
2019-04-10T00:34:21.129Z,8.20
2019-04-10T00:36:54.522Z,9.38
2019-04-10T00:39:28.709Z,11.15
2019-04-10T00:42:03.024Z,8.88
2019-04-10T00:44:37.518Z,11.10
2019-04-10T00:47:11.640Z,11.70
2019-04-10T00:49:46.125Z,8.53
2019-04-10T00:52:20.025Z,8.83
2019-04-10T00:54:53.012Z,10.25
2019-04-10T00:57:27.456Z,11.43
2019-04-10T01:00:00.949Z,7.20
2019-04-10T01:02:34.530Z,10.55
2019-04-10T01:05:07.618Z,9.50
2019-04-10T01:07:43.177Z,8.05
2019-04-10T01:10:15.165Z,8.65
2019-04-10T01:12:48.211Z,12.18
2019-04-10T01:15:22.530Z,8.95
2019-04-10T01:17:56.963Z,9.18
2019-04-10T01:20:29.932Z,7.37
2019-04-10T01:23:03.581Z,8.00
2019-04-10T01:25:36.771Z,8.55
2019-04-10T01:28:10.529Z,7.92
2019-04-10T01:30:43.533Z,7.05
2019-04-10T01:33:16.874Z,9.65
2019-04-10T01:35:50.847Z,7.60
2019-04-10T01:38:25.113Z,6.85
2019-04-10T01:40:59.440Z,8.20
2019-04-10T01:43:32.971Z,7.55
2019-04-10T01:46:06.285Z,9.88
2019-04-10T01:48:39.798Z,9.50
2019-04-10T01:51:12.758Z,11.35
2019-04-10T01:53:46.168Z,8.18
2019-04-10T01:56:25.910Z,7.80
2019-04-10T01:58:54.077Z,6.37
2019-04-10T02:01:34.847Z,6.35
2019-04-10T02:04:08.800Z,7.50
2019-04-10T02:06:43.194Z,6.58
2019-04-10T02:09:16.652Z,8.20
2019-04-10T02:11:50.256Z,7.10
2019-04-10T02:14:24.511Z,5.33
2019-04-10T02:16:57.495Z,8.98
2019-04-10T02:19:32.100Z,9.35
2019-04-10T02:22:04.961Z,6.28
2019-04-10T02:24:38.928Z,7.08
2019-04-10T02:27:12.398Z,9.95
2019-04-10T02:29:46.048Z,7.17
2019-04-10T02:32:21.087Z,8.35
2019-04-10T02:34:57.351Z,7.87
2019-04-10T02:37:31.161Z,5.92
2019-04-10T02:40:07.110Z,9.40
2019-04-10T02:42:41.065Z,7.97
2019-04-10T02:45:14.839Z,7.25
2019-04-10T02:47:48.893Z,7.97
2019-04-10T02:50:21.850Z,7.03
2019-04-10T02:52:55.170Z,7.08
2019-04-10T02:55:29.242Z,6.90
2019-04-10T02:58:02.677Z,8.75
2019-04-10T03:00:37.811Z,9.55
2019-04-10T03:03:12.087Z,18.00
2019-04-10T03:05:46.613Z,7.22
2019-04-10T03:08:37.090Z,6.50
2019-04-10T03:11:00.412Z,7.20
2019-04-10T03:13:31.040Z,9.78
2019-04-10T03:16:05.464Z,9.80
2019-04-10T03:18:39.096Z,8.50
2019-04-10T03:21:13.635Z,6.70
2019-04-10T03:23:47.562Z,7.33
2019-04-10T03:26:21.528Z,9.55
2019-04-10T03:28:55.619Z,11.10
2019-04-10T03:31:30.109Z,6.92
2019-04-10T03:34:21.802Z,8.90
2019-04-10T03:36:54.309Z,8.60
2019-04-10T03:39:28.039Z,8.73
2019-04-10T03:42:01.484Z,9.25
2019-04-10T03:44:34.829Z,5.83
2019-04-10T03:47:09.100Z,6.08
2019-04-10T03:49:42.272Z,8.28
2019-04-10T03:52:14.596Z,7.35
2019-04-10T03:54:48.203Z,8.95
2019-04-10T03:57:22.636Z,10.78
2019-04-10T03:59:55.925Z,9.50
2019-04-10T04:02:29.510Z,10.88
2019-04-10T04:05:02.867Z,8.53
2019-04-10T04:07:36.751Z,6.97
2019-04-10T04:10:12.819Z,8.53
2019-04-10T04:12:46.756Z,11.68
2019-04-10T04:15:20.220Z,7.80
2019-04-10T04:17:54.779Z,10.23
2019-04-10T04:20:28.661Z,10.80
2019-04-10T04:23:02.044Z,10.30
2019-04-10T04:25:35.054Z,9.65
2019-04-10T04:28:08.890Z,9.65
2019-04-10T04:30:42.567Z,11.90
2019-04-10T04:33:16.172Z,9.40
2019-04-10T04:35:49.531Z,9.53
2019-04-10T04:38:23.628Z,7.75
2019-04-10T04:40:56.965Z,10.90
2019-04-10T04:43:30.592Z,8.05
2019-04-10T04:46:03.646Z,10.28
2019-04-10T04:48:36.969Z,9.58
2019-04-10T04:51:09.844Z,9.33
2019-04-10T04:53:44.119Z,8.58
2019-04-10T04:56:17.938Z,12.78
2019-04-10T04:58:51.707Z,8.90
2019-04-10T05:01:24.448Z,7.45
2019-04-10T05:03:58.232Z,11.30
2019-04-10T05:06:32.968Z,6.60
2019-04-10T05:09:06.962Z,5.87
2019-04-10T05:11:39.921Z,9.28
2019-04-10T05:14:13.281Z,9.00
2019-04-10T05:16:47.589Z,8.68
2019-04-10T05:19:21.702Z,7.30
2019-04-10T05:21:55.143Z,6.62
2019-04-10T05:24:28.514Z,10.82
2019-04-10T05:27:02.347Z,9.20
2019-04-10T05:29:34.917Z,8.20
2019-04-10T05:32:07.782Z,6.75
2019-04-10T05:34:41.163Z,7.05
2019-04-10T05:37:15.628Z,7.83
2019-04-10T05:39:50.829Z,8.83
2019-04-10T05:42:24.777Z,8.43
2019-04-10T05:44:58.882Z,8.10
2019-04-10T05:47:32.380Z,8.28
2019-04-10T05:50:06.141Z,8.00
2019-04-10T05:52:40.209Z,9.43
2019-04-10T05:55:13.955Z,12.65
2019-04-10T05:57:47.000Z,7.78
2019-04-10T06:00:21.358Z,10.68
2019-04-10T06:02:56.371Z,8.43
2019-04-10T06:05:29.930Z,7.85
2019-04-10T06:08:03.314Z,9.63
2019-04-10T06:10:36.593Z,8.10
2019-04-10T06:13:10.947Z,7.10
2019-04-10T06:15:43.812Z,8.25
2019-04-10T06:18:16.716Z,6.53
2019-04-10T06:20:50.445Z,11.48
2019-04-10T06:23:23.705Z,7.15
2019-04-10T06:25:56.776Z,10.70
2019-04-10T06:28:30.998Z,7.50
2019-04-10T06:31:04.233Z,9.05
2019-04-10T06:33:36.804Z,8.88
2019-04-10T06:36:11.239Z,7.50
2019-04-10T06:38:45.400Z,7.05
2019-04-10T06:41:19.114Z,9.25
2019-04-10T06:43:53.123Z,7.90
2019-04-10T06:46:26.133Z,8.25
2019-04-10T06:48:58.677Z,8.95
2019-04-10T06:51:31.591Z,7.35
2019-04-10T06:54:09.551Z,7.30
2019-04-10T06:56:41.057Z,6.58
2019-04-10T06:59:14.506Z,8.65
2019-04-10T07:01:51.456Z,8.83
2019-04-10T07:04:25.137Z,9.08
2019-04-10T07:07:04.486Z,9.05
2019-04-10T07:09:32.455Z,10.15
2019-04-10T07:12:06.751Z,10.23
2019-04-10T07:14:44.011Z,11.08
2019-04-10T07:17:16.008Z,9.43
2019-04-10T07:19:49.584Z,8.83
2019-04-10T07:22:23.183Z,11.83
2019-04-10T07:24:56.603Z,10.23
2019-04-10T07:27:33.556Z,12.60
2019-04-10T07:30:06.028Z,8.18
2019-04-10T07:32:43.312Z,9.23
2019-04-10T07:35:18.299Z,9.78
2019-04-10T07:37:54.276Z,9.45
2019-04-10T07:40:25.598Z,12.95
2019-04-10T07:42:59.393Z,15.68
2019-04-10T07:45:32.004Z,10.75
2019-04-10T07:48:06.656Z,11.80
2019-04-10T07:50:42.037Z,11.60
2019-04-10T07:53:14.921Z,10.65
2019-04-10T07:56:00.438Z,9.58
2019-04-10T07:58:23.585Z,8.88
2019-04-10T08:00:56.847Z,16.02
2019-04-10T08:03:29.558Z,12.15
2019-04-10T08:06:02.421Z,11.18
2019-04-10T08:08:36.253Z,10.35
2019-04-10T08:11:09.613Z,12.37
2019-04-10T08:13:44.879Z,14.83
2019-04-10T08:16:19.207Z,11.78
2019-04-10T08:18:52.235Z,10.40
2019-04-10T08:21:27.376Z,13.80
2019-04-10T08:24:03.767Z,12.68
2019-04-10T08:26:37.169Z,10.60
2019-04-10T08:29:11.980Z,10.32
2019-04-10T08:31:48.407Z,13.50
2019-04-10T08:34:26.159Z,13.48
2019-04-10T08:37:02.081Z,11.63
2019-04-10T08:39:41.200Z,13.72
2019-04-10T08:42:10.679Z,13.32
2019-04-10T08:44:44.554Z,13.55
2019-04-10T08:47:17.574Z,11.70
2019-04-10T08:49:50.698Z,9.63
2019-04-10T08:52:24.485Z,13.88
2019-04-10T08:54:59.614Z,12.18
2019-04-10T08:57:34.176Z,18.60
2019-04-10T09:00:08.344Z,12.37
2019-04-10T09:02:42.356Z,17.62
2019-04-10T09:05:17.613Z,13.50
2019-04-10T09:07:50.741Z,12.78
2019-04-10T09:10:23.536Z,13.58
2019-04-10T09:12:56.539Z,18.32
2019-04-10T09:15:32.029Z,15.85
2019-04-10T09:18:08.270Z,13.30
2019-04-10T09:20:42.896Z,13.32
2019-04-10T09:23:39.802Z,13.05
2019-04-10T09:25:55.401Z,15.88
2019-04-10T09:28:32.685Z,12.45
2019-04-10T09:31:07.369Z,16.67
2019-04-10T09:33:40.464Z,12.70
2019-04-10T09:36:15.786Z,12.13
2019-04-10T09:38:48.674Z,10.75
2019-04-10T09:41:21.628Z,12.30
2019-04-10T09:43:56.163Z,11.73
2019-04-10T09:46:31.098Z,11.05
2019-04-10T09:49:05.404Z,14.35
2019-04-10T09:51:40.303Z,14.45
2019-04-10T09:54:13.420Z,11.57
2019-04-10T09:56:46.610Z,14.38
2019-04-10T09:59:31.310Z,16.10
2019-04-10T10:01:58.311Z,13.65
2019-04-10T10:04:31.850Z,13.95
2019-04-10T10:07:08.304Z,11.03
2019-04-10T10:09:43.157Z,15.30
2019-04-10T10:12:18.058Z,11.27
2019-04-10T10:14:51.894Z,11.47
2019-04-10T10:17:28.572Z,10.95
2019-04-10T10:20:01.874Z,10.80
2019-04-10T10:22:37.390Z,11.50
2019-04-10T10:25:11.146Z,13.43
2019-04-10T10:27:44.773Z,12.40
2019-04-10T10:30:19.639Z,11.90
2019-04-10T10:32:53.187Z,11.87
2019-04-10T10:35:27.275Z,13.90
2019-04-10T10:38:01.086Z,11.40
2019-04-10T10:40:36.604Z,13.00
2019-04-10T10:43:10.007Z,10.78
2019-04-10T10:45:45.420Z,12.77
2019-04-10T10:48:18.393Z,12.95
2019-04-10T10:50:51.734Z,14.63
2019-04-10T10:53:26.213Z,12.47
2019-04-10T10:55:58.718Z,13.20
2019-04-10T10:58:32.181Z,11.35
2019-04-10T11:01:05.412Z,12.20
2019-04-10T11:03:38.799Z,12.50
2019-04-10T11:06:11.461Z,12.07
2019-04-10T11:08:44.046Z,11.30
2019-04-10T11:11:17.421Z,14.53
2019-04-10T11:13:50.771Z,12.27
2019-04-10T11:16:24.766Z,12.17
2019-04-10T11:18:58.937Z,12.40
2019-04-10T11:21:32.482Z,12.33
2019-04-10T11:24:06.981Z,9.87
2019-04-10T11:26:40.031Z,10.93
2019-04-10T11:29:14.369Z,10.68
2019-04-10T11:31:47.566Z,12.43
2019-04-10T11:34:22.629Z,12.20
2019-04-10T11:37:18.163Z,11.88
2019-04-10T11:39:35.861Z,13.53
2019-04-10T11:42:10.069Z,9.90
2019-04-10T11:44:45.647Z,10.68
2019-04-10T11:47:19.910Z,11.30
2019-04-10T11:49:57.318Z,11.27
2019-04-10T11:52:36.347Z,10.20
2019-04-10T11:57:41.954Z,12.65
2019-04-10T12:00:20.367Z,9.60
2019-04-10T12:02:58.219Z,12.50
2019-04-10T12:05:31.703Z,10.00
2019-04-10T12:08:32.256Z,13.62
2019-04-10T12:13:17.987Z,8.83
2019-04-10T12:15:52.609Z,10.00
2019-04-10T12:18:26.648Z,8.65
2019-04-10T12:21:00.050Z,7.70
2019-04-10T12:23:33.033Z,7.70
2019-04-10T12:26:07.437Z,8.67
2019-04-10T12:28:40.706Z,8.43
2019-04-10T12:31:13.640Z,9.93
2019-04-10T12:33:46.657Z,11.67
2019-04-10T12:36:20.555Z,8.00
2019-04-10T12:38:54.088Z,7.73
2019-04-10T12:41:27.687Z,9.50
2019-04-10T12:44:01.050Z,9.80
2019-04-10T12:46:35.161Z,9.57
2019-04-10T12:49:07.839Z,9.50
2019-04-10T12:51:41.699Z,9.30
2019-04-10T12:54:15.042Z,8.55
2019-04-10T12:56:48.535Z,9.68
2019-04-10T12:59:21.890Z,9.13
2019-04-10T13:01:55.496Z,9.85
2019-04-10T13:04:30.276Z,9.93
2019-04-10T13:07:05.397Z,8.50
2019-04-10T13:09:38.610Z,8.90
2019-04-10T13:12:11.903Z,8.53
2019-04-10T13:14:44.983Z,9.83
2019-04-10T13:17:20.265Z,9.40
2019-04-10T13:19:53.595Z,8.70
2019-04-10T13:22:28.417Z,9.28
2019-04-10T13:25:01.870Z,9.43
2019-04-10T13:27:35.389Z,9.33
2019-04-10T13:30:12.873Z,11.25
2019-04-10T13:32:45.651Z,8.65
2019-04-10T13:35:18.818Z,7.35
2019-04-10T13:37:52.844Z,9.33
2019-04-10T13:40:26.353Z,8.20
2019-04-10T13:42:59.728Z,9.33
2019-04-10T13:45:32.884Z,10.35
2019-04-10T13:48:06.170Z,7.53
2019-04-10T13:50:39.158Z,9.70
2019-04-10T13:53:13.427Z,9.33
2019-04-10T13:55:46.532Z,9.05
2019-04-10T13:58:19.990Z,8.70
2019-04-10T14:00:53.634Z,11.37
2019-04-10T14:03:26.755Z,9.30
2019-04-10T14:06:01.138Z,9.87
2019-04-10T14:08:54.729Z,10.13
2019-04-10T14:11:07.506Z,9.03
2019-04-10T14:13:40.670Z,10.47
2019-04-10T14:16:14.807Z,10.83
2019-04-10T14:18:47.175Z,8.73
2019-04-10T14:21:20.748Z,9.35
2019-04-10T14:23:55.590Z,11.00
2019-04-10T14:26:46.758Z,8.73
2019-04-10T14:29:16.926Z,7.95
2019-04-10T14:32:01.749Z,8.95
2019-04-10T14:34:34.888Z,10.15
2019-04-10T14:37:11.492Z,8.70
2019-04-10T14:42:18.267Z,9.00
2019-04-10T14:44:51.306Z,9.17
2019-04-10T14:47:25.488Z,10.07
2019-04-10T14:49:59.625Z,7.90
2019-04-10T14:52:33.142Z,9.40
2019-04-10T14:55:06.200Z,8.53
2019-04-10T14:57:39.179Z,8.40
2019-04-10T15:00:18.806Z,7.80
2019-04-10T15:02:51.941Z,8.60
2019-04-10T15:05:25.843Z,8.80
2019-04-10T15:07:59.498Z,11.80
2019-04-10T15:10:32.576Z,8.68
2019-04-10T15:13:10.169Z,9.08
2019-04-10T15:15:42.804Z,8.63
2019-04-10T15:18:15.987Z,8.83
2019-04-10T15:20:49.367Z,9.00
2019-04-10T15:23:23.243Z,7.40
2019-04-10T15:25:57.534Z,7.92
2019-04-10T15:28:30.472Z,7.40
2019-04-10T15:31:04.349Z,8.80
2019-04-10T15:33:37.757Z,7.08
2019-04-10T15:36:11.505Z,6.97
2019-04-10T15:38:46.318Z,7.28
2019-04-10T15:41:21.006Z,7.67
2019-04-10T15:43:54.133Z,9.15
2019-04-10T15:46:26.924Z,5.95
2019-04-10T15:49:00.557Z,8.43
2019-04-10T15:51:34.252Z,8.78
2019-04-10T15:54:08.123Z,7.20
2019-04-10T15:56:42.338Z,6.95
2019-04-10T15:59:16.402Z,9.80
2019-04-10T16:01:50.980Z,6.78
2019-04-10T16:04:25.426Z,8.58
2019-04-10T16:07:00.041Z,6.40
2019-04-10T16:09:44.877Z,5.78
2019-04-10T16:12:14.395Z,6.50
2019-04-10T16:14:48.665Z,6.55
2019-04-10T16:17:33.353Z,7.65
2019-04-10T16:20:23.780Z,6.08
2019-04-10T16:23:15.002Z,6.53
2019-04-10T16:25:52.599Z,5.60
2019-04-10T16:28:25.489Z,5.33
2019-04-10T16:30:59.419Z,7.03
2019-04-10T16:33:33.487Z,6.17
2019-04-10T16:36:06.992Z,6.40
2019-04-10T16:38:40.670Z,5.22
2019-04-10T16:41:15.300Z,5.15
2019-04-10T16:43:48.723Z,4.33
2019-04-10T16:46:22.021Z,7.00
2019-04-10T16:48:56.182Z,6.17
2019-04-10T16:51:29.147Z,9.63
2019-04-10T16:54:02.451Z,5.50
2019-04-10T16:56:36.370Z,5.28
2019-04-10T16:59:09.958Z,5.87
2019-04-10T17:01:43.344Z,4.80
2019-04-10T17:04:16.841Z,8.15
2019-04-10T17:06:50.527Z,6.72
2019-04-10T17:09:25.099Z,5.28
2019-04-10T17:11:58.964Z,7.37
2019-04-10T17:14:32.691Z,7.83
2019-04-10T17:17:06.483Z,6.25
2019-04-10T17:19:49.386Z,4.42
2019-04-10T17:22:17.608Z,5.42
2019-04-10T17:24:50.745Z,5.80
2019-04-10T17:27:25.615Z,4.20
2019-04-10T17:29:58.793Z,5.83
2019-04-10T17:32:32.630Z,5.05
2019-04-10T17:35:09.518Z,6.83
2019-04-10T17:37:43.075Z,6.85
2019-04-10T17:40:28.533Z,6.50
2019-04-10T17:42:50.921Z,6.42
2019-04-10T17:45:25.832Z,7.53
2019-04-10T17:48:01.059Z,5.50
2019-04-10T17:50:33.919Z,8.93
2019-04-10T17:53:07.467Z,6.67
2019-04-10T17:55:41.989Z,6.95
2019-04-10T17:58:15.157Z,5.50
2019-04-10T18:00:51.851Z,5.50
2019-04-10T18:03:29.464Z,5.60
2019-04-10T18:06:01.368Z,8.60
2019-04-10T18:08:36.751Z,5.70
2019-04-10T18:11:10.473Z,6.95
2019-04-10T18:13:44.842Z,6.80
2019-04-10T18:16:18.153Z,7.00
2019-04-10T18:18:51.757Z,6.08
2019-04-10T18:21:25.580Z,7.80
2019-04-10T18:23:59.998Z,7.35
2019-04-10T18:26:34.010Z,7.50
2019-04-10T18:29:07.878Z,8.43
2019-04-10T18:31:41.462Z,7.05
2019-04-10T18:34:15.424Z,7.03
2019-04-10T18:36:50.993Z,7.53
2019-04-10T18:39:24.463Z,7.20
2019-04-10T18:41:59.758Z,7.92
2019-04-10T18:44:35.206Z,6.35
2019-04-10T18:47:08.990Z,8.20
2019-04-10T18:49:43.321Z,8.50
2019-04-10T18:52:16.612Z,7.70
2019-04-10T18:54:50.141Z,8.90
2019-04-10T18:57:24.052Z,7.17
2019-04-10T19:00:24.043Z,17.73
2019-04-10T19:03:15.097Z,11.80
2019-04-10T19:05:52.042Z,8.65
2019-04-10T19:08:26.086Z,7.60
2019-04-10T19:11:10.587Z,9.55
2019-04-10T19:13:35.660Z,10.08
2019-04-10T19:16:08.975Z,8.85
2019-04-10T19:18:42.375Z,6.65
2019-04-10T19:21:15.641Z,9.85
2019-04-10T19:23:49.622Z,6.20
2019-04-10T19:26:23.251Z,5.15
2019-04-10T19:28:57.148Z,7.17
2019-04-10T19:31:33.350Z,9.33
2019-04-10T19:34:07.218Z,7.75
2019-04-10T19:36:40.357Z,6.03
2019-04-10T19:39:14.011Z,10.98
2019-04-10T19:41:48.756Z,7.05
2019-04-10T19:44:23.193Z,10.90
2019-04-10T19:46:57.703Z,6.20
2019-04-10T19:49:31.083Z,6.17
2019-04-10T19:52:08.604Z,6.55
2019-04-10T19:54:42.966Z,7.60
2019-04-10T19:57:17.220Z,6.47
2019-04-10T19:59:50.293Z,8.63
2019-04-10T20:02:24.648Z,6.37
2019-04-10T20:04:59.047Z,7.87
2019-04-10T20:07:33.212Z,6.25
2019-04-10T20:10:06.770Z,6.00
2019-04-10T20:12:42.601Z,5.60
2019-04-10T20:15:16.540Z,6.70
2019-04-10T20:17:50.411Z,7.42
2019-04-10T20:20:23.744Z,6.45
2019-04-10T20:22:58.292Z,8.80
2019-04-10T20:25:32.405Z,8.05
2019-04-10T20:28:06.836Z,10.65
2019-04-10T20:30:40.457Z,7.78
2019-04-10T20:33:14.617Z,5.45
2019-04-10T20:35:48.816Z,7.08
2019-04-10T20:38:23.131Z,8.80
2019-04-10T20:40:58.601Z,7.83
2019-04-10T20:43:33.457Z,5.87
2019-04-10T20:46:07.250Z,7.35
2019-04-10T20:48:40.905Z,5.95
2019-04-10T20:51:16.565Z,9.08
2019-04-10T20:53:50.614Z,5.35
2019-04-10T20:56:24.268Z,7.22
2019-04-10T20:58:57.174Z,6.05
2019-04-10T21:01:31.011Z,11.40
2019-04-10T21:04:05.293Z,6.20
2019-04-10T21:06:40.881Z,7.22
2019-04-10T21:09:13.406Z,5.00
2019-04-10T21:11:57.989Z,7.03
2019-04-10T21:14:21.259Z,5.20
2019-04-10T21:16:54.769Z,5.05
2019-04-10T21:19:29.028Z,4.80
2019-04-10T21:22:03.698Z,8.75
2019-04-10T21:24:37.917Z,5.20
2019-04-10T21:27:11.315Z,5.30
2019-04-10T21:30:03.893Z,6.37
2019-04-10T21:32:45.412Z,6.40
2019-04-10T21:35:22.878Z,5.37
2019-04-10T21:37:56.915Z,10.13
2019-04-10T21:40:30.627Z,6.70
2019-04-10T21:43:03.858Z,5.80
2019-04-10T21:45:37.514Z,6.75
2019-04-10T21:48:11.204Z,6.60
2019-04-10T21:50:44.165Z,5.17
2019-04-10T21:53:17.158Z,4.97
2019-04-10T21:55:51.418Z,4.97
2019-04-10T21:58:24.607Z,7.00
2019-04-10T22:01:05.577Z,6.60
2019-04-10T22:03:41.389Z,4.75
2019-04-10T22:06:33.640Z,7.05
2019-04-10T22:09:28.504Z,6.20
2019-04-10T22:12:21.554Z,7.12
2019-04-10T22:14:43.870Z,7.67
2019-04-10T22:17:17.347Z,5.60
2019-04-10T22:19:50.758Z,5.55
2019-04-10T22:22:24.527Z,5.97
2019-04-10T22:24:57.514Z,8.50
2019-04-10T22:27:30.293Z,6.35
2019-04-10T22:30:04.899Z,5.75
2019-04-10T22:32:39.040Z,3.85
2019-04-10T22:35:12.432Z,6.60
2019-04-10T22:37:46.324Z,7.33
2019-04-10T22:40:19.391Z,4.60
2019-04-10T22:42:53.246Z,5.22
2019-04-10T22:45:29.251Z,9.83
2019-04-10T22:48:04.198Z,6.20
2019-04-10T22:50:38.428Z,5.33
2019-04-10T22:53:11.339Z,4.47
2019-04-10T22:55:44.444Z,7.00
2019-04-10T22:58:17.370Z,7.85
2019-04-10T23:00:50.978Z,6.37
2019-04-10T23:03:24.472Z,8.25
2019-04-10T23:09:14.573Z,11.20
2019-04-10T23:11:48.526Z,5.55
2019-04-10T23:14:22.746Z,4.10
2019-04-10T23:16:56.712Z,5.67
2019-04-10T23:19:30.059Z,6.70
2019-04-10T23:22:07.159Z,4.30
2019-04-10T23:24:40.534Z,7.05
2019-04-10T23:27:14.959Z,6.30
2019-04-10T23:29:48.659Z,6.15
2019-04-10T23:32:21.643Z,5.80
2019-04-10T23:34:54.891Z,6.00
2019-04-10T23:37:28.913Z,4.90
2019-04-10T23:40:04.954Z,6.12
2019-04-10T23:42:38.111Z,6.53
2019-04-10T23:45:13.509Z,5.35
2019-04-10T23:47:48.684Z,6.35
2019-04-10T23:50:23.969Z,6.87
2019-04-10T23:52:58.337Z,6.28
2019-04-10T23:55:32.292Z,5.30
2019-04-10T23:58:05.851Z,9.18
